sensor_id;sensor_type;location;lat;lon;timestamp;temperature;humidity
32534;DHT22;18973;48.580;8.912;2022-10-16T00:02:00;15.50;99.90
32534;DHT22;18973;48.580;8.912;2022-10-16T00:04:26;15.40;99.90
32534;DHT22;18973;48.580;8.912;2022-10-16T00:06:52;15.40;99.90
32534;DHT22;18973;48.580;8.912;2022-10-16T00:09:18;15.40;99.90
32534;DHT22;18973;48.580;8.912;2022-10-16T00:11:44;15.50;99.90
32534;DHT22;18973;48.580;8.912;2022-10-16T00:14:13;15.50;99.90
32534;DHT22;18973;48.580;8.912;2022-10-16T00:16:40;15.60;99.90
32534;DHT22;18973;48.580;8.912;2022-10-16T00:19:05;15.50;99.90
32534;DHT22;18973;48.580;8.912;2022-10-16T00:21:33;15.40;99.90
32534;DHT22;18973;48.580;8.912;2022-10-16T00:24:09;15.40;99.90
32534;DHT22;18973;48.580;8.912;2022-10-16T00:26:36;15.40;99.90
32534;DHT22;18973;48.580;8.912;2022-10-16T00:29:03;15.30;99.90
32534;DHT22;18973;48.580;8.912;2022-10-16T00:31:29;15.20;99.90
32534;DHT22;18973;48.580;8.912;2022-10-16T00:33:55;15.20;99.90
32534;DHT22;18973;48.580;8.912;2022-10-16T00:36:23;15.20;99.90
32534;DHT22;18973;48.580;8.912;2022-10-16T00:38:56;15.20;99.90
32534;DHT22;18973;48.580;8.912;2022-10-16T00:41:25;15.30;99.90
32534;DHT22;18973;48.580;8.912;2022-10-16T00:43:56;15.20;99.90
32534;DHT22;18973;48.580;8.912;2022-10-16T00:46:38;15.30;99.90
32534;DHT22;18973;48.580;8.912;2022-10-16T00:49:12;15.40;99.90
32534;DHT22;18973;48.580;8.912;2022-10-16T00:51:53;15.40;99.90
32534;DHT22;18973;48.580;8.912;2022-10-16T00:54:21;15.30;99.90
32534;DHT22;18973;48.580;8.912;2022-10-16T00:56:49;15.20;99.90
32534;DHT22;18973;48.580;8.912;2022-10-16T00:59:23;15.30;99.90
32534;DHT22;18973;48.580;8.912;2022-10-16T01:01:51;15.30;99.90
32534;DHT22;18973;48.580;8.912;2022-10-16T01:04:17;15.10;99.90
32534;DHT22;18973;48.580;8.912;2022-10-16T01:06:50;15.10;99.90
32534;DHT22;18973;48.580;8.912;2022-10-16T01:12:15;15.20;99.90
32534;DHT22;18973;48.580;8.912;2022-10-16T01:14:47;15.10;99.90
32534;DHT22;18973;48.580;8.912;2022-10-16T01:25:30;14.80;99.90
32534;DHT22;18973;48.580;8.912;2022-10-16T01:27:59;14.80;99.90
32534;DHT22;18973;48.580;8.912;2022-10-16T01:30:30;14.80;99.90
32534;DHT22;18973;48.580;8.912;2022-10-16T01:33:05;14.80;99.90
32534;DHT22;18973;48.580;8.912;2022-10-16T01:35:40;14.80;99.90
32534;DHT22;18973;48.580;8.912;2022-10-16T01:38:17;14.80;99.90
32534;DHT22;18973;48.580;8.912;2022-10-16T01:40:52;14.90;99.90
32534;DHT22;18973;48.580;8.912;2022-10-16T01:43:28;14.90;99.90
32534;DHT22;18973;48.580;8.912;2022-10-16T01:45:57;14.90;99.90
32534;DHT22;18973;48.580;8.912;2022-10-16T01:48:24;14.90;99.90
32534;DHT22;18973;48.580;8.912;2022-10-16T01:50:56;14.90;99.90
32534;DHT22;18973;48.580;8.912;2022-10-16T01:53:23;14.90;99.90
32534;DHT22;18973;48.580;8.912;2022-10-16T01:55:52;15.00;99.90
32534;DHT22;18973;48.580;8.912;2022-10-16T01:58:18;15.00;99.90
32534;DHT22;18973;48.580;8.912;2022-10-16T02:00:46;15.00;99.90
32534;DHT22;18973;48.580;8.912;2022-10-16T02:03:14;15.00;99.90
32534;DHT22;18973;48.580;8.912;2022-10-16T02:05:56;15.00;99.90
32534;DHT22;18973;48.580;8.912;2022-10-16T02:08:24;15.00;99.90
32534;DHT22;18973;48.580;8.912;2022-10-16T02:10:51;15.10;99.90
32534;DHT22;18973;48.580;8.912;2022-10-16T02:13:22;15.10;99.90
32534;DHT22;18973;48.580;8.912;2022-10-16T02:15:48;15.10;99.90
32534;DHT22;18973;48.580;8.912;2022-10-16T02:18:14;15.10;99.90
32534;DHT22;18973;48.580;8.912;2022-10-16T02:23:28;15.00;99.90
32534;DHT22;18973;48.580;8.912;2022-10-16T02:25:56;15.00;99.90
32534;DHT22;18973;48.580;8.912;2022-10-16T02:28:36;15.00;99.90
32534;DHT22;18973;48.580;8.912;2022-10-16T02:31:07;15.00;99.90
32534;DHT22;18973;48.580;8.912;2022-10-16T02:33:35;15.00;99.90
32534;DHT22;18973;48.580;8.912;2022-10-16T02:36:02;14.90;99.90
32534;DHT22;18973;48.580;8.912;2022-10-16T02:38:28;15.00;99.90
32534;DHT22;18973;48.580;8.912;2022-10-16T02:40:56;14.90;99.90
32534;DHT22;18973;48.580;8.912;2022-10-16T02:43:22;14.90;99.90
32534;DHT22;18973;48.580;8.912;2022-10-16T02:45:50;14.90;99.90
32534;DHT22;18973;48.580;8.912;2022-10-16T02:48:15;14.90;99.90
32534;DHT22;18973;48.580;8.912;2022-10-16T02:50:41;14.90;99.90
32534;DHT22;18973;48.580;8.912;2022-10-16T02:53:07;15.00;99.90
32534;DHT22;18973;48.580;8.912;2022-10-16T02:55:32;15.00;99.90
32534;DHT22;18973;48.580;8.912;2022-10-16T02:57:58;15.10;99.90
32534;DHT22;18973;48.580;8.912;2022-10-16T03:00:24;15.10;99.90
32534;DHT22;18973;48.580;8.912;2022-10-16T03:02:50;15.00;99.90
32534;DHT22;18973;48.580;8.912;2022-10-16T03:05:16;15.00;99.90
32534;DHT22;18973;48.580;8.912;2022-10-16T03:07:42;15.00;99.90
32534;DHT22;18973;48.580;8.912;2022-10-16T03:10:08;15.00;99.90
32534;DHT22;18973;48.580;8.912;2022-10-16T03:12:33;15.10;99.90
32534;DHT22;18973;48.580;8.912;2022-10-16T03:14:59;15.10;99.90
32534;DHT22;18973;48.580;8.912;2022-10-16T03:17:25;15.20;99.90
32534;DHT22;18973;48.580;8.912;2022-10-16T03:19:51;15.20;99.90
32534;DHT22;18973;48.580;8.912;2022-10-16T03:22:17;15.10;99.90
32534;DHT22;18973;48.580;8.912;2022-10-16T03:24:43;15.20;99.90
32534;DHT22;18973;48.580;8.912;2022-10-16T03:27:08;15.10;99.90
32534;DHT22;18973;48.580;8.912;2022-10-16T03:29:34;15.10;99.90
32534;DHT22;18973;48.580;8.912;2022-10-16T03:32:01;15.00;99.90
32534;DHT22;18973;48.580;8.912;2022-10-16T03:34:27;15.00;99.90
32534;DHT22;18973;48.580;8.912;2022-10-16T03:36:53;15.00;99.90
32534;DHT22;18973;48.580;8.912;2022-10-16T03:39:19;14.90;99.90
32534;DHT22;18973;48.580;8.912;2022-10-16T03:41:44;14.90;99.90
32534;DHT22;18973;48.580;8.912;2022-10-16T03:44:12;14.80;99.90
32534;DHT22;18973;48.580;8.912;2022-10-16T03:46:37;14.90;99.90
32534;DHT22;18973;48.580;8.912;2022-10-16T03:49:03;14.90;99.90
32534;DHT22;18973;48.580;8.912;2022-10-16T03:51:29;14.90;99.90
32534;DHT22;18973;48.580;8.912;2022-10-16T03:53:55;14.90;99.90
32534;DHT22;18973;48.580;8.912;2022-10-16T03:56:20;14.90;99.90
32534;DHT22;18973;48.580;8.912;2022-10-16T03:58:46;14.90;99.90
32534;DHT22;18973;48.580;8.912;2022-10-16T04:01:12;14.90;99.90
32534;DHT22;18973;48.580;8.912;2022-10-16T04:03:38;14.90;99.90
32534;DHT22;18973;48.580;8.912;2022-10-16T04:06:04;14.80;99.90
32534;DHT22;18973;48.580;8.912;2022-10-16T04:08:29;14.90;99.90
32534;DHT22;18973;48.580;8.912;2022-10-16T04:10:55;14.90;99.90
32534;DHT22;18973;48.580;8.912;2022-10-16T04:13:21;14.90;99.90
32534;DHT22;18973;48.580;8.912;2022-10-16T04:15:47;14.90;99.90
32534;DHT22;18973;48.580;8.912;2022-10-16T04:18:12;14.90;99.90
32534;DHT22;18973;48.580;8.912;2022-10-16T04:20:38;14.90;99.90
32534;DHT22;18973;48.580;8.912;2022-10-16T04:23:04;14.90;99.90
32534;DHT22;18973;48.580;8.912;2022-10-16T04:25:30;14.90;99.90
32534;DHT22;18973;48.580;8.912;2022-10-16T04:27:56;15.00;99.90
32534;DHT22;18973;48.580;8.912;2022-10-16T04:30:22;15.00;99.90
32534;DHT22;18973;48.580;8.912;2022-10-16T04:32:49;15.00;99.90
32534;DHT22;18973;48.580;8.912;2022-10-16T04:35:16;15.20;99.90
32534;DHT22;18973;48.580;8.912;2022-10-16T04:37:41;15.10;99.90
32534;DHT22;18973;48.580;8.912;2022-10-16T04:40:07;15.10;99.90
32534;DHT22;18973;48.580;8.912;2022-10-16T04:42:33;15.00;99.90
32534;DHT22;18973;48.580;8.912;2022-10-16T04:44:59;15.10;99.90
32534;DHT22;18973;48.580;8.912;2022-10-16T04:47:24;15.10;99.90
32534;DHT22;18973;48.580;8.912;2022-10-16T04:49:50;15.20;99.90
32534;DHT22;18973;48.580;8.912;2022-10-16T04:52:16;15.10;99.90
32534;DHT22;18973;48.580;8.912;2022-10-16T04:54:42;15.10;99.90
32534;DHT22;18973;48.580;8.912;2022-10-16T04:57:10;15.10;99.90
32534;DHT22;18973;48.580;8.912;2022-10-16T04:59:36;15.10;99.90
32534;DHT22;18973;48.580;8.912;2022-10-16T05:02:02;15.10;99.90
32534;DHT22;18973;48.580;8.912;2022-10-16T05:04:28;15.10;99.90
32534;DHT22;18973;48.580;8.912;2022-10-16T05:06:53;15.10;99.90
32534;DHT22;18973;48.580;8.912;2022-10-16T05:09:19;15.10;99.90
32534;DHT22;18973;48.580;8.912;2022-10-16T05:11:46;15.10;99.90
32534;DHT22;18973;48.580;8.912;2022-10-16T05:14:11;15.10;99.90
32534;DHT22;18973;48.580;8.912;2022-10-16T05:16:37;15.00;99.90
32534;DHT22;18973;48.580;8.912;2022-10-16T05:19:03;15.00;99.90
32534;DHT22;18973;48.580;8.912;2022-10-16T05:21:28;14.90;99.90
32534;DHT22;18973;48.580;8.912;2022-10-16T05:23:54;15.00;99.90
32534;DHT22;18973;48.580;8.912;2022-10-16T05:26:20;15.00;99.90
32534;DHT22;18973;48.580;8.912;2022-10-16T05:28:46;14.90;99.90
32534;DHT22;18973;48.580;8.912;2022-10-16T05:31:12;14.80;99.90
32534;DHT22;18973;48.580;8.912;2022-10-16T05:33:37;14.70;99.90
32534;DHT22;18973;48.580;8.912;2022-10-16T05:36:05;14.70;99.90
32534;DHT22;18973;48.580;8.912;2022-10-16T05:38:33;14.70;99.90
32534;DHT22;18973;48.580;8.912;2022-10-16T05:40:59;14.80;99.90
32534;DHT22;18973;48.580;8.912;2022-10-16T05:43:26;14.80;99.90
32534;DHT22;18973;48.580;8.912;2022-10-16T05:46:00;14.80;99.90
32534;DHT22;18973;48.580;8.912;2022-10-16T05:48:26;14.80;99.90
32534;DHT22;18973;48.580;8.912;2022-10-16T05:51:00;14.80;99.90
32534;DHT22;18973;48.580;8.912;2022-10-16T05:53:31;14.90;99.90
32534;DHT22;18973;48.580;8.912;2022-10-16T05:55:57;14.90;99.90
32534;DHT22;18973;48.580;8.912;2022-10-16T05:58:25;14.90;99.90
32534;DHT22;18973;48.580;8.912;2022-10-16T06:00:59;14.90;99.90
32534;DHT22;18973;48.580;8.912;2022-10-16T06:03:26;14.80;99.90
32534;DHT22;18973;48.580;8.912;2022-10-16T06:05:52;14.90;99.90
32534;DHT22;18973;48.580;8.912;2022-10-16T06:08:19;14.90;99.90
32534;DHT22;18973;48.580;8.912;2022-10-16T06:10:45;14.90;99.90
32534;DHT22;18973;48.580;8.912;2022-10-16T06:13:12;15.00;99.90
32534;DHT22;18973;48.580;8.912;2022-10-16T06:15:39;14.90;99.90
32534;DHT22;18973;48.580;8.912;2022-10-16T06:18:07;15.00;99.90
32534;DHT22;18973;48.580;8.912;2022-10-16T06:20:33;14.90;99.90
32534;DHT22;18973;48.580;8.912;2022-10-16T06:22:58;14.90;99.90
32534;DHT22;18973;48.580;8.912;2022-10-16T06:25:24;15.00;99.90
32534;DHT22;18973;48.580;8.912;2022-10-16T06:27:50;15.10;99.90
32534;DHT22;18973;48.580;8.912;2022-10-16T06:30:15;15.10;99.90
32534;DHT22;18973;48.580;8.912;2022-10-16T06:32:41;15.10;99.90
32534;DHT22;18973;48.580;8.912;2022-10-16T06:35:07;15.20;99.90
32534;DHT22;18973;48.580;8.912;2022-10-16T06:37:33;15.30;99.90
32534;DHT22;18973;48.580;8.912;2022-10-16T06:39:59;15.40;99.90
32534;DHT22;18973;48.580;8.912;2022-10-16T06:42:25;15.50;99.90
32534;DHT22;18973;48.580;8.912;2022-10-16T06:44:51;15.50;99.90
32534;DHT22;18973;48.580;8.912;2022-10-16T06:47:17;15.50;99.90
32534;DHT22;18973;48.580;8.912;2022-10-16T06:49:43;15.40;99.90
32534;DHT22;18973;48.580;8.912;2022-10-16T06:52:08;15.50;99.90
32534;DHT22;18973;48.580;8.912;2022-10-16T06:54:34;15.60;99.90
32534;DHT22;18973;48.580;8.912;2022-10-16T06:57:00;15.60;99.90
32534;DHT22;18973;48.580;8.912;2022-10-16T06:59:27;15.60;99.90
32534;DHT22;18973;48.580;8.912;2022-10-16T07:01:53;15.60;99.90
32534;DHT22;18973;48.580;8.912;2022-10-16T07:04:18;15.60;99.90
32534;DHT22;18973;48.580;8.912;2022-10-16T07:06:44;15.70;99.90
32534;DHT22;18973;48.580;8.912;2022-10-16T07:09:10;15.80;99.90
32534;DHT22;18973;48.580;8.912;2022-10-16T07:11:37;15.90;99.90
32534;DHT22;18973;48.580;8.912;2022-10-16T07:14:03;15.90;99.90
32534;DHT22;18973;48.580;8.912;2022-10-16T07:16:31;15.80;99.90
32534;DHT22;18973;48.580;8.912;2022-10-16T07:18:59;15.80;99.90
32534;DHT22;18973;48.580;8.912;2022-10-16T07:21:31;15.80;99.90
32534;DHT22;18973;48.580;8.912;2022-10-16T07:24:00;15.90;99.90
32534;DHT22;18973;48.580;8.912;2022-10-16T07:26:31;15.90;99.90
32534;DHT22;18973;48.580;8.912;2022-10-16T07:28:58;15.80;99.90
32534;DHT22;18973;48.580;8.912;2022-10-16T07:31:24;15.90;99.90
32534;DHT22;18973;48.580;8.912;2022-10-16T07:33:50;15.90;99.90
32534;DHT22;18973;48.580;8.912;2022-10-16T07:36:18;16.00;99.90
32534;DHT22;18973;48.580;8.912;2022-10-16T07:38:44;16.00;99.90
32534;DHT22;18973;48.580;8.912;2022-10-16T07:41:12;16.00;99.90
32534;DHT22;18973;48.580;8.912;2022-10-16T07:43:39;16.00;99.90
32534;DHT22;18973;48.580;8.912;2022-10-16T07:46:05;16.10;99.90
32534;DHT22;18973;48.580;8.912;2022-10-16T07:48:33;16.20;99.90
32534;DHT22;18973;48.580;8.912;2022-10-16T07:51:03;16.20;99.90
32534;DHT22;18973;48.580;8.912;2022-10-16T07:53:33;16.20;99.90
32534;DHT22;18973;48.580;8.912;2022-10-16T07:56:24;16.30;99.90
32534;DHT22;18973;48.580;8.912;2022-10-16T07:58:57;16.40;99.90
32534;DHT22;18973;48.580;8.912;2022-10-16T08:01:23;16.40;99.90
32534;DHT22;18973;48.580;8.912;2022-10-16T08:04:09;16.40;99.90
32534;DHT22;18973;48.580;8.912;2022-10-16T08:07:21;16.50;99.90
32534;DHT22;18973;48.580;8.912;2022-10-16T08:10:45;16.40;99.90
32534;DHT22;18973;48.580;8.912;2022-10-16T08:13:55;16.50;99.90
32534;DHT22;18973;48.580;8.912;2022-10-16T08:17:30;16.60;99.90
32534;DHT22;18973;48.580;8.912;2022-10-16T08:19:57;16.80;99.90
32534;DHT22;18973;48.580;8.912;2022-10-16T08:22:23;16.80;99.90
32534;DHT22;18973;48.580;8.912;2022-10-16T08:24:49;16.90;99.90
32534;DHT22;18973;48.580;8.912;2022-10-16T08:27:14;16.90;99.90
32534;DHT22;18973;48.580;8.912;2022-10-16T08:29:40;16.90;99.90
32534;DHT22;18973;48.580;8.912;2022-10-16T08:32:06;16.90;99.90
32534;DHT22;18973;48.580;8.912;2022-10-16T08:34:32;17.00;99.90
32534;DHT22;18973;48.580;8.912;2022-10-16T08:36:57;17.00;99.90
32534;DHT22;18973;48.580;8.912;2022-10-16T08:39:23;17.00;99.90
32534;DHT22;18973;48.580;8.912;2022-10-16T08:47:45;17.10;99.90
32534;DHT22;18973;48.580;8.912;2022-10-16T08:50:21;17.10;99.90
32534;DHT22;18973;48.580;8.912;2022-10-16T08:52:48;17.20;99.90
32534;DHT22;18973;48.580;8.912;2022-10-16T08:55:31;17.20;99.90
32534;DHT22;18973;48.580;8.912;2022-10-16T08:57:59;17.20;99.90
32534;DHT22;18973;48.580;8.912;2022-10-16T09:00:26;17.30;99.90
32534;DHT22;18973;48.580;8.912;2022-10-16T09:05:43;17.20;99.90
32534;DHT22;18973;48.580;8.912;2022-10-16T09:08:16;17.10;99.90
32534;DHT22;18973;48.580;8.912;2022-10-16T09:21:13;17.90;99.90
32534;DHT22;18973;48.580;8.912;2022-10-16T09:23:40;18.30;99.90
32534;DHT22;18973;48.580;8.912;2022-10-16T09:26:11;18.60;99.90
32534;DHT22;18973;48.580;8.912;2022-10-16T09:28:37;18.70;99.90
32534;DHT22;18973;48.580;8.912;2022-10-16T09:31:03;18.80;99.90
32534;DHT22;18973;48.580;8.912;2022-10-16T09:33:36;18.90;99.90
32534;DHT22;18973;48.580;8.912;2022-10-16T09:36:05;18.90;99.90
32534;DHT22;18973;48.580;8.912;2022-10-16T09:38:33;19.10;99.90
32534;DHT22;18973;48.580;8.912;2022-10-16T09:41:01;19.40;99.90
32534;DHT22;18973;48.580;8.912;2022-10-16T09:46:22;19.60;99.90
32534;DHT22;18973;48.580;8.912;2022-10-16T09:48:51;19.70;99.90
32534;DHT22;18973;48.580;8.912;2022-10-16T09:51:30;19.80;99.90
32534;DHT22;18973;48.580;8.912;2022-10-16T09:54:02;19.80;99.90
32534;DHT22;18973;48.580;8.912;2022-10-16T09:56:33;19.80;99.90
32534;DHT22;18973;48.580;8.912;2022-10-16T09:59:02;19.90;99.90
32534;DHT22;18973;48.580;8.912;2022-10-16T10:01:39;19.90;99.90
32534;DHT22;18973;48.580;8.912;2022-10-16T10:04:06;20.00;99.90
32534;DHT22;18973;48.580;8.912;2022-10-16T10:06:52;20.00;99.90
32534;DHT22;18973;48.580;8.912;2022-10-16T10:09:58;20.00;99.90
32534;DHT22;18973;48.580;8.912;2022-10-16T10:12:27;19.90;99.90
32534;DHT22;18973;48.580;8.912;2022-10-16T10:14:56;19.90;99.90
32534;DHT22;18973;48.580;8.912;2022-10-16T10:17:31;19.90;99.90
32534;DHT22;18973;48.580;8.912;2022-10-16T10:20:00;20.00;99.90
32534;DHT22;18973;48.580;8.912;2022-10-16T10:22:42;20.00;99.90
32534;DHT22;18973;48.580;8.912;2022-10-16T10:30:25;20.40;99.90
32534;DHT22;18973;48.580;8.912;2022-10-16T10:33:17;20.70;99.90
32534;DHT22;18973;48.580;8.912;2022-10-16T10:36:16;21.10;99.90
32534;DHT22;18973;48.580;8.912;2022-10-16T10:38:58;21.30;99.90
32534;DHT22;18973;48.580;8.912;2022-10-16T10:44:14;22.00;99.90
32534;DHT22;18973;48.580;8.912;2022-10-16T10:46:51;22.20;99.90
32534;DHT22;18973;48.580;8.912;2022-10-16T10:49:43;22.30;99.90
32534;DHT22;18973;48.580;8.912;2022-10-16T10:52:24;22.60;99.90
32534;DHT22;18973;48.580;8.912;2022-10-16T11:00:40;22.90;99.90
32534;DHT22;18973;48.580;8.912;2022-10-16T11:03:13;22.70;99.90
32534;DHT22;18973;48.580;8.912;2022-10-16T11:05:52;22.70;99.90
32534;DHT22;18973;48.580;8.912;2022-10-16T11:08:39;22.70;99.90
32534;DHT22;18973;48.580;8.912;2022-10-16T11:11:29;22.60;99.90
32534;DHT22;18973;48.580;8.912;2022-10-16T11:16:52;22.70;99.90
32534;DHT22;18973;48.580;8.912;2022-10-16T11:22:04;23.10;99.90
32534;DHT22;18973;48.580;8.912;2022-10-16T11:24:40;23.30;99.90
32534;DHT22;18973;48.580;8.912;2022-10-16T11:27:11;23.40;99.90
32534;DHT22;18973;48.580;8.912;2022-10-16T11:30:06;23.50;99.90
32534;DHT22;18973;48.580;8.912;2022-10-16T11:35:21;23.70;99.90
32534;DHT22;18973;48.580;8.912;2022-10-16T11:37:50;23.80;99.90
32534;DHT22;18973;48.580;8.912;2022-10-16T11:40:32;24.00;99.90
32534;DHT22;18973;48.580;8.912;2022-10-16T11:43:13;24.20;99.90
32534;DHT22;18973;48.580;8.912;2022-10-16T11:45:46;24.40;99.90
32534;DHT22;18973;48.580;8.912;2022-10-16T11:48:32;24.50;99.90
32534;DHT22;18973;48.580;8.912;2022-10-16T11:51:11;24.60;99.90
32534;DHT22;18973;48.580;8.912;2022-10-16T11:53:51;24.80;99.90
32534;DHT22;18973;48.580;8.912;2022-10-16T11:56:20;24.90;99.20
32534;DHT22;18973;48.580;8.912;2022-10-16T11:59:00;25.00;99.70
32534;DHT22;18973;48.580;8.912;2022-10-16T12:04:29;25.20;99.90
32534;DHT22;18973;48.580;8.912;2022-10-16T12:07:32;25.30;99.00
32534;DHT22;18973;48.580;8.912;2022-10-16T12:10:24;25.10;98.80
32534;DHT22;18973;48.580;8.912;2022-10-16T12:12:51;25.00;98.10
32534;DHT22;18973;48.580;8.912;2022-10-16T12:15:27;24.80;99.60
32534;DHT22;18973;48.580;8.912;2022-10-16T12:17:54;24.80;99.20
32534;DHT22;18973;48.580;8.912;2022-10-16T12:22:54;24.80;99.90
32534;DHT22;18973;48.580;8.912;2022-10-16T12:25:22;24.70;99.80
32534;DHT22;18973;48.580;8.912;2022-10-16T12:28:03;24.70;99.00
32534;DHT22;18973;48.580;8.912;2022-10-16T12:30:32;24.60;99.00
32534;DHT22;18973;48.580;8.912;2022-10-16T12:33:05;24.60;99.90
32534;DHT22;18973;48.580;8.912;2022-10-16T12:35:34;24.70;98.90
32534;DHT22;18973;48.580;8.912;2022-10-16T12:41:11;24.90;97.90
32534;DHT22;18973;48.580;8.912;2022-10-16T12:43:46;24.90;98.50
32534;DHT22;18973;48.580;8.912;2022-10-16T12:48:40;25.20;96.50
32534;DHT22;18973;48.580;8.912;2022-10-16T12:51:44;25.10;97.90
32534;DHT22;18973;48.580;8.912;2022-10-16T12:54:25;25.20;96.90
32534;DHT22;18973;48.580;8.912;2022-10-16T12:57:19;25.30;97.40
32534;DHT22;18973;48.580;8.912;2022-10-16T13:08:00;25.10;94.90
32534;DHT22;18973;48.580;8.912;2022-10-16T13:21:39;24.90;95.40
32534;DHT22;18973;48.580;8.912;2022-10-16T13:24:18;25.00;96.40
32534;DHT22;18973;48.580;8.912;2022-10-16T13:29:32;25.00;97.10
32534;DHT22;18973;48.580;8.912;2022-10-16T13:32:01;25.00;97.50
32534;DHT22;18973;48.580;8.912;2022-10-16T13:34:32;24.90;97.90
32534;DHT22;18973;48.580;8.912;2022-10-16T13:36:57;24.90;97.40
32534;DHT22;18973;48.580;8.912;2022-10-16T13:39:26;24.70;96.00
32534;DHT22;18973;48.580;8.912;2022-10-16T13:42:13;24.60;96.50
32534;DHT22;18973;48.580;8.912;2022-10-16T13:44:51;24.60;96.20
32534;DHT22;18973;48.580;8.912;2022-10-16T13:47:22;24.50;96.90
32534;DHT22;18973;48.580;8.912;2022-10-16T13:50:11;24.40;96.30
32534;DHT22;18973;48.580;8.912;2022-10-16T13:52:37;24.40;96.40
32534;DHT22;18973;48.580;8.912;2022-10-16T13:55:09;24.30;96.10
32534;DHT22;18973;48.580;8.912;2022-10-16T13:57:35;24.20;96.80
32534;DHT22;18973;48.580;8.912;2022-10-16T14:00:01;24.20;97.20
32534;DHT22;18973;48.580;8.912;2022-10-16T14:02:31;24.10;98.20
32534;DHT22;18973;48.580;8.912;2022-10-16T14:05:02;24.10;97.20
32534;DHT22;18973;48.580;8.912;2022-10-16T14:07:33;24.20;96.60
32534;DHT22;18973;48.580;8.912;2022-10-16T14:10:05;24.20;96.70
32534;DHT22;18973;48.580;8.912;2022-10-16T14:12:32;24.10;96.20
32534;DHT22;18973;48.580;8.912;2022-10-16T14:14:59;24.00;96.10
32534;DHT22;18973;48.580;8.912;2022-10-16T14:17:35;23.80;96.70
32534;DHT22;18973;48.580;8.912;2022-10-16T14:20:04;23.80;96.20
32534;DHT22;18973;48.580;8.912;2022-10-16T14:22:39;23.80;96.90
32534;DHT22;18973;48.580;8.912;2022-10-16T14:25:24;23.80;96.70
32534;DHT22;18973;48.580;8.912;2022-10-16T14:27:58;23.80;96.50
32534;DHT22;18973;48.580;8.912;2022-10-16T14:30:26;23.70;96.80
32534;DHT22;18973;48.580;8.912;2022-10-16T14:33:18;23.70;97.50
32534;DHT22;18973;48.580;8.912;2022-10-16T14:35:44;23.80;98.30
32534;DHT22;18973;48.580;8.912;2022-10-16T14:38:19;23.80;98.30
32534;DHT22;18973;48.580;8.912;2022-10-16T14:40:49;23.80;98.70
32534;DHT22;18973;48.580;8.912;2022-10-16T14:43:22;23.70;99.00
32534;DHT22;18973;48.580;8.912;2022-10-16T14:45:56;23.70;98.20
32534;DHT22;18973;48.580;8.912;2022-10-16T14:48:22;23.70;97.90
32534;DHT22;18973;48.580;8.912;2022-10-16T14:50:48;23.70;98.20
32534;DHT22;18973;48.580;8.912;2022-10-16T14:53:14;23.60;98.90
32534;DHT22;18973;48.580;8.912;2022-10-16T14:55:40;23.60;99.10
32534;DHT22;18973;48.580;8.912;2022-10-16T14:58:21;23.60;99.00
32534;DHT22;18973;48.580;8.912;2022-10-16T15:00:51;23.60;99.20
32534;DHT22;18973;48.580;8.912;2022-10-16T15:03:20;23.60;99.10
32534;DHT22;18973;48.580;8.912;2022-10-16T15:05:46;23.70;98.70
32534;DHT22;18973;48.580;8.912;2022-10-16T15:08:11;23.60;98.50
32534;DHT22;18973;48.580;8.912;2022-10-16T15:10:41;23.60;98.70
32534;DHT22;18973;48.580;8.912;2022-10-16T15:13:12;23.50;97.80
32534;DHT22;18973;48.580;8.912;2022-10-16T15:15:47;23.50;97.60
32534;DHT22;18973;48.580;8.912;2022-10-16T15:18:14;23.50;97.90
32534;DHT22;18973;48.580;8.912;2022-10-16T15:20:47;23.40;98.10
32534;DHT22;18973;48.580;8.912;2022-10-16T15:23:16;23.30;98.70
32534;DHT22;18973;48.580;8.912;2022-10-16T15:25:44;23.30;99.20
32534;DHT22;18973;48.580;8.912;2022-10-16T15:28:11;23.20;99.50
32534;DHT22;18973;48.580;8.912;2022-10-16T15:30:38;23.20;98.80
32534;DHT22;18973;48.580;8.912;2022-10-16T15:33:05;23.20;98.90
32534;DHT22;18973;48.580;8.912;2022-10-16T15:35:35;23.10;99.30
32534;DHT22;18973;48.580;8.912;2022-10-16T15:38:01;23.10;99.40
32534;DHT22;18973;48.580;8.912;2022-10-16T15:40:26;23.10;99.40
32534;DHT22;18973;48.580;8.912;2022-10-16T15:42:52;23.00;99.30
32534;DHT22;18973;48.580;8.912;2022-10-16T15:45:18;23.00;99.10
32534;DHT22;18973;48.580;8.912;2022-10-16T15:47:45;23.00;99.70
32534;DHT22;18973;48.580;8.912;2022-10-16T15:50:12;22.90;99.60
32534;DHT22;18973;48.580;8.912;2022-10-16T15:52:40;22.80;99.90
32534;DHT22;18973;48.580;8.912;2022-10-16T15:55:10;22.80;99.90
32534;DHT22;18973;48.580;8.912;2022-10-16T15:57:36;22.80;99.90
32534;DHT22;18973;48.580;8.912;2022-10-16T16:00:12;22.80;99.90
32534;DHT22;18973;48.580;8.912;2022-10-16T16:02:39;22.80;99.90
32534;DHT22;18973;48.580;8.912;2022-10-16T16:05:05;22.60;99.90
32534;DHT22;18973;48.580;8.912;2022-10-16T16:07:34;22.40;99.90
32534;DHT22;18973;48.580;8.912;2022-10-16T16:10:00;22.10;99.90
32534;DHT22;18973;48.580;8.912;2022-10-16T16:12:26;22.00;99.90
32534;DHT22;18973;48.580;8.912;2022-10-16T16:14:52;21.80;99.90
32534;DHT22;18973;48.580;8.912;2022-10-16T16:17:18;21.70;99.90
32534;DHT22;18973;48.580;8.912;2022-10-16T16:19:45;21.60;99.90
32534;DHT22;18973;48.580;8.912;2022-10-16T16:22:11;21.50;99.90
32534;DHT22;18973;48.580;8.912;2022-10-16T16:24:37;21.40;99.90
32534;DHT22;18973;48.580;8.912;2022-10-16T16:27:03;21.40;99.90
32534;DHT22;18973;48.580;8.912;2022-10-16T16:29:29;21.30;99.90
32534;DHT22;18973;48.580;8.912;2022-10-16T16:31:55;21.20;99.90
32534;DHT22;18973;48.580;8.912;2022-10-16T16:34:24;21.10;99.90
32534;DHT22;18973;48.580;8.912;2022-10-16T16:36:54;21.00;99.90
32534;DHT22;18973;48.580;8.912;2022-10-16T16:39:20;20.90;99.90
32534;DHT22;18973;48.580;8.912;2022-10-16T16:41:46;20.90;99.90
32534;DHT22;18973;48.580;8.912;2022-10-16T16:44:13;20.80;99.90
32534;DHT22;18973;48.580;8.912;2022-10-16T16:46:39;20.80;99.90
32534;DHT22;18973;48.580;8.912;2022-10-16T16:49:06;20.80;99.90
32534;DHT22;18973;48.580;8.912;2022-10-16T16:51:33;20.70;99.90
32534;DHT22;18973;48.580;8.912;2022-10-16T16:53:59;20.60;99.90
32534;DHT22;18973;48.580;8.912;2022-10-16T16:56:25;20.60;99.90
32534;DHT22;18973;48.580;8.912;2022-10-16T16:58:54;20.50;99.90
32534;DHT22;18973;48.580;8.912;2022-10-16T17:01:21;20.50;99.90
32534;DHT22;18973;48.580;8.912;2022-10-16T17:03:49;20.40;99.90
32534;DHT22;18973;48.580;8.912;2022-10-16T17:06:15;20.40;99.90
32534;DHT22;18973;48.580;8.912;2022-10-16T17:08:42;20.40;99.90
32534;DHT22;18973;48.580;8.912;2022-10-16T17:11:13;20.40;99.90
32534;DHT22;18973;48.580;8.912;2022-10-16T17:13:40;20.40;99.90
32534;DHT22;18973;48.580;8.912;2022-10-16T17:16:06;20.40;99.90
32534;DHT22;18973;48.580;8.912;2022-10-16T17:18:33;20.40;99.90
32534;DHT22;18973;48.580;8.912;2022-10-16T17:21:00;20.30;99.90